Search projects


Showing 401-450 of 1,383 items.
NameOwnerPublication dateProject typeLikesViewed 
IoT P01 BluetoothJuan Luis2019-04-07 13:49:03Arduino Uno 0239
Silenciador sonoroJosé Antonio Vacas Martínez2019-04-06 10:48:09Arduino Uno 0229
Medida de nivel sonoroJosé Antonio Vacas Martínez2019-04-05 17:29:16Arduino Uno 0265
neopixel_ruletaNXAleix Pagès López2019-04-05 10:02:11Arduino Uno 0273
g7 P13Carlos Fernández Blanco2019-04-04 10:25:07Arduino Uno 0298
(G-3)P13a:ServomotorJhonatan Alvarez Ossa2019-04-04 10:18:09Arduino Uno 0279
Monitor temperatura y humedad en OledCristobal Alcazar Rodriguez2019-04-03 22:46:41Arduino Nano / ATmega328 2393
RFID CONTROL ACCESOFrancisco Soldado2019-04-03 14:45:05Arduino Uno 2367
RFID PRUEBASFrancisco Soldado2019-04-03 14:40:11Arduino Uno 1222
macarrones con tomateTecnologia 1c20192019-04-03 14:22:12Arduino Uno 0233
Brazo Robotico Vicente AleixandreManuel Cañamero2019-04-03 12:33:52Arduino Uno 1243
anillo y pantalla manuautomaticoJavier Ramos Cuadrado2019-04-03 11:20:41Arduino Uno 0201
TimbreIgnacio Nicolás2019-04-03 10:21:55Arduino Uno 3306
BOTmi (control por voz)José Joaquín Alcázar2019-04-01 09:48:58Arduino Uno 3316
Cotxe Mila - Ex01. Motors i ProximitatXimo Gonzalez2019-04-01 09:45:57Arduino Uno 0252
(G-3)P13d:Servomotor(progresivo)Jhonatan Alvarez Ossa2019-04-01 09:10:59Arduino Uno 0271
g1 p12Jorge Garcia2019-04-01 09:09:43Arduino Uno 0215
g4 practica 13Martina Y Sevi Perez Rebollar2019-04-01 09:07:26Arduino Uno 0206
G2 P12Adrian Cubria Moura2019-04-01 09:06:09Arduino Uno 0171
G2 P13Adrian Cubria Moura2019-04-01 09:05:54Arduino Uno 0179
(G-3) P13: sensor de infrarrojosJhonatan Alvarez Ossa2019-04-01 09:04:57Arduino Uno 0249
(G-3)P12: alarma de prevencion de choqueJhonatan Alvarez Ossa2019-04-01 09:03:41Arduino Uno 0202
G5 Practica 13BMarius Rat2019-04-01 08:51:24Arduino Uno 0193
G5 Practica 13AMarius Rat2019-04-01 08:49:48Arduino Uno 0194
G5 Practica 13Marius Rat2019-04-01 08:41:21Arduino Uno 0203
G1: P11BJorge Garcia2019-04-01 08:39:15Arduino Uno 0171
runmaiwenwuk3Nich Paibulsirijit2019-04-01 04:20:34Arduino Uno 0193
Lámpara con regulación manualIgnacio Nicolás2019-03-31 21:35:34Arduino Uno 0216
Simulación de amanecer y anochecerIgnacio Nicolás2019-03-31 19:11:23Arduino Uno 0240
Montaje para configurar módulo Lora AS32Cristobal Alcazar Rodriguez2019-03-31 09:32:40Arduino Nano / ATmega328 0285
ejemploJuan Antonio Cepillo2019-03-30 13:11:01Arduino Uno 0206
Empezando con Arduino 1Emiliano Medina2019-03-29 23:31:29Arduino Nano / ATmega328 0228
termostatoAndrés Sellés Gómez2019-03-29 07:38:27Arduino Uno 0337
Matrix Led I2CFrancisco Soldado2019-03-28 19:40:37Arduino Uno 0288
receptor shield joystick bluetoodAntonio León Calleja2019-03-28 17:13:08Arduino Nano / ATmega328 0216
mClon siguelíneas concurso UMHEmilio Vicedo Cano2019-03-28 17:11:18Arduino Uno 0272
G5 Practica 2BMarius Rat2019-03-28 11:32:46Arduino Uno 0190
g4 practica 3Martina Y Sevi Perez Rebollar2019-03-28 11:28:43Arduino Uno 0199
G5 Practica 2AMarius Rat2019-03-28 11:27:48Arduino Uno 0186
g4 practica 2bMartina Y Sevi Perez Rebollar2019-03-28 11:25:49Arduino Uno 0190
G1: P11AJorge Garcia2019-03-28 11:22:13Arduino Uno 0176
g4 practica 2Martina Y Sevi Perez Rebollar2019-03-28 11:21:34Arduino Uno 0167
g7 P12Carlos Fernández Blanco2019-03-28 11:20:00Arduino Uno 0203
g4 practica 1Martina Y Sevi Perez Rebollar2019-03-28 11:18:24Arduino Uno 0192
G6 P11A: Mediendo distanciasRebeca Nistal2019-03-28 11:16:50Arduino Uno 0269
(G-3)P11bJhonatan Alvarez Ossa2019-03-28 11:16:48Arduino Uno 0183
(G-3)P11aJhonatan Alvarez Ossa2019-03-28 11:16:29Arduino Uno 0176
(G-3)P8Jhonatan Alvarez Ossa2019-03-28 11:13:45Arduino Uno 0185
G5 Practica 12Marius Rat2019-03-28 11:12:26Arduino Uno 0201
G6 P9: Potenciometro y purto serieRebeca Nistal2019-03-28 11:12:06Arduino Uno 0192